createdAt,value
2019-01-23T00:00:39.018Z,52.43
2019-01-23T00:03:08.648Z,52.03
2019-01-23T00:05:37.856Z,51.27
2019-01-23T00:08:07.052Z,48.60
2019-01-23T00:10:36.220Z,48.93
2019-01-23T00:13:05.844Z,48.50
2019-01-23T00:15:35.144Z,48.33
2019-01-23T00:18:04.430Z,44.97
2019-01-23T00:20:33.642Z,45.90
2019-01-23T00:23:02.861Z,44.17
2019-01-23T00:25:32.054Z,41.63
2019-01-23T00:28:01.298Z,43.07
2019-01-23T00:30:30.449Z,39.40
2019-01-23T00:32:59.574Z,40.17
2019-01-23T00:35:28.791Z,41.83
2019-01-23T00:37:57.958Z,42.43
2019-01-23T00:40:27.201Z,41.63
2019-01-23T00:42:58.012Z,41.63
2019-01-23T00:45:29.848Z,41.30
2019-01-23T00:47:59.189Z,38.47
2019-01-23T00:50:28.445Z,41.63
2019-01-23T00:52:57.586Z,37.67
2019-01-23T00:55:26.784Z,36.53
2019-01-23T00:57:55.911Z,34.27
2019-01-23T01:00:26.637Z,33.93
2019-01-23T01:02:55.886Z,32.17
2019-01-23T01:05:25.247Z,34.10
2019-01-23T01:07:54.485Z,32.10
2019-01-23T01:10:23.998Z,31.07
2019-01-23T01:12:53.193Z,27.10
2019-01-23T01:15:22.602Z,27.93
2019-01-23T01:17:51.767Z,26.10
2019-01-23T01:20:21.045Z,20.63
2019-01-23T01:22:50.277Z,24.53
2019-01-23T01:25:21.584Z,38.13
2019-01-23T01:27:51.463Z,38.00
2019-01-23T01:30:25.304Z,39.93
2019-01-23T01:32:54.472Z,39.63
2019-01-23T01:35:26.392Z,40.43
2019-01-23T01:37:55.574Z,42.30
2019-01-23T01:40:26.139Z,40.60
2019-01-23T01:42:55.340Z,43.80
2019-01-23T01:45:24.499Z,43.63
2019-01-23T01:47:53.710Z,44.33
2019-01-23T01:50:23.201Z,43.47
2019-01-23T01:52:52.379Z,44.33
2019-01-23T01:55:21.575Z,42.27
2019-01-23T01:57:54.891Z,42.27
2019-01-23T02:00:25.115Z,41.33
2019-01-23T02:02:54.335Z,39.50
2019-01-23T02:05:23.845Z,37.97
2019-01-23T02:07:53.073Z,30.83
2019-01-23T02:10:22.270Z,33.37
2019-01-23T02:12:51.462Z,33.63
2019-01-23T02:15:20.715Z,33.13
2019-01-23T02:17:49.842Z,33.57
2019-01-23T02:20:23.415Z,34.13
2019-01-23T02:22:52.612Z,32.93
2019-01-23T02:25:22.031Z,33.60
2019-01-23T02:27:51.342Z,30.23
2019-01-23T02:30:24.971Z,32.47
2019-01-23T02:32:54.271Z,31.03
2019-01-23T02:35:24.849Z,28.57
2019-01-23T02:37:54.067Z,24.50
2019-01-23T02:40:24.074Z,24.47
2019-01-23T02:42:53.192Z,22.80
2019-01-23T02:45:24.338Z,21.23
2019-01-23T02:47:54.590Z,20.37
2019-01-23T02:50:24.621Z,31.53
2019-01-23T02:52:54.863Z,31.57
2019-01-23T02:55:26.991Z,31.93
2019-01-23T02:57:56.617Z,31.80
2019-01-23T03:00:26.962Z,29.70
2019-01-23T03:02:57.233Z,31.33
2019-01-23T03:05:27.997Z,30.20
2019-01-23T03:07:57.113Z,31.23
2019-01-23T03:10:27.421Z,32.30
2019-01-23T03:12:58.195Z,31.87
2019-01-23T03:15:27.846Z,32.00
2019-01-23T03:17:57.014Z,29.17
2019-01-23T03:20:29.381Z,29.43
2019-01-23T03:22:58.594Z,28.50
2019-01-23T03:25:27.827Z,28.40
2019-01-23T03:27:56.993Z,29.20
2019-01-23T03:30:26.118Z,28.90
2019-01-23T03:32:55.334Z,28.90
2019-01-23T03:35:24.498Z,29.37
2019-01-23T03:37:53.730Z,29.30
2019-01-23T03:40:24.951Z,28.53
2019-01-23T03:42:54.117Z,29.27
2019-01-23T03:45:23.304Z,29.63
2019-01-23T03:47:52.557Z,29.40
2019-01-23T03:50:22.076Z,28.77
2019-01-23T03:52:51.283Z,27.90
2019-01-23T03:55:20.611Z,27.73
2019-01-23T03:57:49.773Z,27.67
2019-01-23T04:00:20.581Z,26.07
2019-01-23T04:02:50.802Z,26.37
2019-01-23T04:05:20.309Z,25.80
2019-01-23T04:07:49.516Z,24.27
2019-01-23T04:10:21.000Z,22.03
2019-01-23T04:12:50.206Z,21.53
2019-01-23T04:15:19.486Z,30.73
2019-01-23T04:17:48.774Z,33.07
2019-01-23T04:20:19.918Z,36.07
2019-01-23T04:22:49.041Z,34.07
2019-01-23T04:25:18.133Z,33.47
2019-01-23T04:27:47.323Z,34.40
2019-01-23T04:30:19.008Z,36.90
2019-01-23T04:32:48.121Z,35.47
2019-01-23T04:35:17.419Z,35.83
2019-01-23T04:37:46.604Z,38.53
2019-01-23T04:40:17.187Z,38.03
2019-01-23T04:42:46.629Z,36.13
2019-01-23T04:45:16.142Z,38.80
2019-01-23T04:47:45.985Z,38.57
2019-01-23T04:50:16.262Z,37.20
2019-01-23T04:52:56.511Z,35.10
2019-01-23T04:55:25.755Z,33.33
2019-01-23T04:57:54.957Z,32.53
2019-01-23T05:00:25.511Z,31.53
2019-01-23T05:02:54.686Z,31.93
2019-01-23T05:05:24.588Z,32.67
2019-01-23T05:07:53.912Z,30.87
2019-01-23T05:10:24.951Z,30.30
2019-01-23T05:12:54.506Z,29.60
2019-01-23T05:15:25.187Z,30.13
2019-01-23T05:17:54.334Z,27.80
2019-01-23T05:20:23.530Z,26.97
2019-01-23T05:22:52.654Z,25.13
2019-01-23T05:25:21.783Z,23.20
2019-01-23T05:27:50.918Z,23.80
2019-01-23T05:30:24.667Z,22.27
2019-01-23T05:32:53.858Z,21.73
2019-01-23T05:35:22.984Z,31.73
2019-01-23T05:37:52.096Z,35.30
2019-01-23T05:40:21.209Z,33.00
2019-01-23T05:42:50.350Z,33.97
2019-01-23T05:45:19.508Z,32.93
2019-01-23T05:47:48.813Z,36.20
2019-01-23T05:50:18.251Z,33.60
2019-01-23T05:52:48.791Z,36.23
2019-01-23T05:55:17.910Z,37.07
2019-01-23T05:57:47.760Z,37.80
2019-01-23T06:00:20.744Z,39.20
2019-01-23T06:02:50.108Z,38.67
2019-01-23T06:05:19.572Z,38.13
2019-01-23T06:07:48.718Z,38.83
2019-01-23T06:10:18.338Z,39.27
2019-01-23T06:12:47.475Z,37.33
2019-01-23T06:15:16.686Z,36.27
2019-01-23T06:17:46.031Z,39.07
2019-01-23T06:20:17.458Z,37.33
2019-01-23T06:22:46.663Z,38.97
2019-01-23T06:25:15.810Z,38.03
2019-01-23T06:27:44.944Z,35.90
2019-01-23T06:30:19.441Z,36.03
2019-01-23T06:32:48.645Z,35.73
2019-01-23T06:35:17.785Z,34.93
2019-01-23T06:37:46.917Z,36.03
2019-01-23T06:40:16.554Z,35.17
2019-01-23T06:42:45.916Z,32.43
2019-01-23T06:45:15.939Z,31.50
2019-01-23T06:47:45.306Z,30.27
2019-01-23T06:50:16.520Z,28.00
2019-01-23T06:52:45.741Z,27.90
2019-01-23T06:55:15.071Z,24.37
2019-01-23T06:57:44.250Z,24.73
2019-01-23T07:00:18.884Z,39.80
2019-01-23T07:02:48.199Z,37.47
2019-01-23T07:05:17.966Z,38.90
2019-01-23T07:07:47.127Z,37.67
2019-01-23T07:10:24.338Z,37.23
2019-01-23T07:12:53.668Z,37.57
2019-01-23T07:15:23.186Z,38.07
2019-01-23T07:17:52.322Z,36.87
2019-01-23T07:20:24.578Z,38.13
2019-01-23T07:22:53.705Z,38.63
2019-01-23T07:25:23.096Z,38.77
2019-01-23T07:27:52.239Z,39.77
2019-01-23T07:30:24.282Z,39.27
2019-01-23T07:32:53.802Z,38.27
2019-01-23T07:35:23.575Z,37.47
2019-01-23T07:37:52.712Z,39.07
2019-01-23T07:40:21.867Z,38.33
2019-01-23T07:42:51.006Z,38.03
2019-01-23T07:45:20.481Z,34.50
2019-01-23T07:47:49.670Z,35.33
2019-01-23T07:50:19.940Z,33.33
2019-01-23T07:52:49.180Z,30.37
2019-01-23T07:55:21.701Z,29.03
2019-01-23T07:57:50.829Z,29.57
2019-01-23T08:00:31.350Z,27.77
2019-01-23T08:02:57.424Z,43.80
2019-01-23T08:05:26.988Z,43.83
2019-01-23T08:07:56.159Z,43.50
2019-01-23T08:10:25.700Z,44.70
2019-01-23T08:12:54.881Z,43.63
2019-01-23T08:15:29.858Z,44.90
2019-01-23T08:17:59.330Z,44.13
2019-01-23T08:20:29.684Z,43.90
2019-01-23T08:22:59.010Z,42.47
2019-01-23T08:25:28.543Z,44.20
2019-01-23T08:27:58.056Z,44.73
2019-01-23T08:30:27.392Z,45.00
2019-01-23T08:32:56.756Z,44.07
2019-01-23T08:35:27.160Z,42.97
2019-01-23T08:37:57.036Z,45.00
2019-01-23T08:40:27.697Z,42.90
2019-01-23T08:42:57.197Z,45.27
2019-01-23T08:45:26.900Z,41.27
2019-01-23T08:47:56.017Z,40.90
2019-01-23T08:50:27.841Z,41.20
2019-01-23T08:52:57.240Z,38.43
2019-01-23T08:55:26.371Z,37.97
2019-01-23T08:57:56.232Z,36.00
2019-01-23T09:00:27.622Z,31.73
2019-01-23T09:02:56.947Z,31.53
2019-01-23T09:05:26.821Z,30.70
2019-01-23T09:07:55.939Z,30.70
2019-01-23T09:10:27.854Z,45.97
2019-01-23T09:12:57.000Z,46.17
2019-01-23T09:15:28.463Z,45.80
2019-01-23T09:17:57.594Z,47.87
2019-01-23T09:20:29.460Z,44.93
2019-01-23T09:22:58.592Z,47.80
2019-01-23T09:25:29.490Z,47.57
2019-01-23T09:27:58.836Z,47.87
2019-01-23T09:30:40.976Z,47.70
2019-01-23T09:33:49.966Z,45.90
2019-01-23T09:36:55.914Z,44.57
2019-01-23T09:40:11.988Z,47.43
2019-01-23T09:43:02.673Z,47.67
2019-01-23T09:46:01.134Z,48.47
2019-01-23T09:48:47.165Z,47.20
2019-01-23T09:51:52.869Z,48.17
2019-01-23T09:54:23.156Z,47.23
2019-01-23T09:56:52.615Z,47.43
2019-01-23T09:59:24.082Z,49.23
2019-01-23T10:01:53.147Z,45.70
2019-01-23T10:04:22.385Z,46.30
2019-01-23T10:06:51.489Z,47.13
2019-01-23T10:09:20.598Z,47.47
2019-01-23T10:11:49.851Z,47.67
2019-01-23T10:14:18.994Z,46.07
2019-01-23T10:16:50.328Z,47.00
2019-01-23T10:19:19.441Z,44.00
2019-01-23T10:21:48.565Z,44.27
2019-01-23T10:24:18.894Z,44.17
2019-01-23T10:26:48.044Z,42.30
2019-01-23T10:29:17.144Z,44.17
2019-01-23T10:31:46.266Z,43.80
2019-01-23T10:34:15.653Z,43.50
2019-01-23T10:36:46.040Z,42.27
2019-01-23T10:39:15.151Z,42.57
2019-01-23T10:41:47.142Z,41.63
2019-01-23T10:44:16.276Z,39.70
2019-01-23T10:46:45.378Z,38.80
2019-01-23T10:49:14.499Z,38.17
2019-01-23T10:51:45.118Z,40.67
2019-01-23T10:54:14.273Z,39.40
2019-01-23T10:56:43.770Z,36.87
2019-01-23T10:59:12.931Z,35.07
2019-01-23T11:01:43.677Z,35.97
2019-01-23T11:04:15.440Z,35.13
2019-01-23T11:06:46.093Z,29.50
2019-01-23T11:09:15.529Z,38.97
2019-01-23T11:11:44.651Z,46.10
2019-01-23T11:14:13.793Z,46.90
2019-01-23T11:16:42.931Z,47.80
2019-01-23T11:19:12.093Z,45.47
2019-01-23T11:21:41.255Z,47.50
2019-01-23T11:24:11.362Z,45.23
2019-01-23T11:26:40.510Z,46.50
2019-01-23T11:29:09.903Z,44.97
2019-01-23T11:31:41.339Z,43.17
2019-01-23T11:34:10.484Z,41.87
2019-01-23T11:36:39.602Z,45.63
2019-01-23T11:39:09.694Z,42.57
2019-01-23T11:41:38.869Z,42.30
2019-01-23T11:44:08.011Z,40.27
2019-01-23T11:46:37.494Z,39.37
2019-01-23T11:49:06.594Z,36.10
2019-01-23T11:51:37.054Z,34.23
2019-01-23T11:54:07.681Z,34.50
2019-01-23T11:56:37.033Z,37.87
2019-01-23T11:59:06.254Z,37.23
2019-01-23T12:01:36.308Z,37.37
2019-01-23T12:04:05.472Z,38.20
2019-01-23T12:06:35.742Z,35.97
2019-01-23T12:09:08.271Z,34.33
2019-01-23T12:11:37.378Z,38.63
2019-01-23T12:14:06.526Z,38.10
2019-01-23T12:16:35.802Z,40.23
2019-01-23T12:19:04.893Z,38.33
2019-01-23T12:21:37.391Z,38.47
2019-01-23T12:24:06.511Z,40.50
2019-01-23T12:26:35.603Z,37.83
2019-01-23T12:29:04.971Z,35.77
2019-01-23T12:31:35.063Z,36.73
2019-01-23T12:34:06.817Z,36.57
2019-01-23T12:36:35.945Z,37.30
2019-01-23T12:39:07.998Z,35.93
2019-01-23T12:41:37.175Z,33.03
2019-01-23T12:44:07.171Z,33.20
2019-01-23T12:46:36.288Z,34.33
2019-01-23T12:49:05.393Z,34.40
2019-01-23T12:51:34.513Z,33.07
2019-01-23T12:54:03.627Z,33.50
2019-01-23T12:56:32.744Z,34.90
2019-01-23T12:59:04.487Z,33.73
2019-01-23T13:01:33.564Z,29.57
2019-01-23T13:04:02.703Z,37.60
2019-01-23T13:06:31.983Z,34.30
2019-01-23T13:09:01.104Z,36.00
2019-01-23T13:11:30.516Z,36.93
2019-01-23T13:13:59.858Z,37.87
2019-01-23T13:16:31.048Z,36.37
2019-01-23T13:19:00.206Z,36.90
2019-01-23T13:21:29.346Z,36.20
2019-01-23T13:23:58.457Z,38.10
2019-01-23T13:26:27.595Z,37.57
2019-01-23T13:28:56.760Z,36.23
2019-01-23T13:31:26.469Z,28.40
2019-01-23T13:33:55.895Z,27.27
2019-01-23T13:36:25.279Z,27.67
2019-01-23T13:38:54.393Z,26.87
2019-01-23T13:41:25.061Z,27.13
2019-01-23T13:43:54.168Z,26.73
2019-01-23T13:46:23.307Z,27.07
2019-01-23T13:48:55.341Z,28.57
2019-01-23T13:51:24.507Z,27.73
2019-01-23T13:53:53.925Z,28.37
2019-01-23T13:56:28.187Z,28.63
2019-01-23T13:58:58.481Z,27.90
2019-01-23T14:01:27.569Z,27.80
2019-01-23T14:03:57.317Z,27.63
2019-01-23T14:06:27.314Z,26.73
2019-01-23T14:08:56.838Z,28.00
2019-01-23T14:11:26.495Z,28.93
2019-01-23T14:13:55.635Z,25.67
2019-01-23T14:16:25.182Z,31.67
2019-01-23T14:18:54.533Z,30.53
2019-01-23T14:21:23.950Z,33.33
2019-01-23T14:23:53.361Z,32.80
2019-01-23T14:26:23.069Z,25.33
2019-01-23T14:28:52.194Z,23.80
2019-01-23T14:31:23.064Z,37.03
2019-01-23T14:33:53.508Z,38.03
2019-01-23T14:36:26.106Z,38.90
2019-01-23T14:38:55.467Z,39.90
2019-01-23T14:41:25.922Z,38.67
2019-01-23T14:43:57.175Z,38.27
2019-01-23T14:46:26.653Z,37.53
2019-01-23T14:48:57.623Z,38.33
2019-01-23T14:51:27.077Z,37.00
2019-01-23T14:53:56.524Z,37.73
2019-01-23T14:56:26.451Z,39.33
2019-01-23T14:58:55.817Z,42.97
2019-01-23T15:01:25.767Z,44.43
2019-01-23T15:03:56.397Z,35.03
2019-01-23T15:06:26.889Z,36.13
2019-01-23T15:08:58.235Z,33.37
2019-01-23T15:11:28.421Z,33.83
2019-01-23T15:13:58.589Z,36.90
2019-01-23T15:16:28.692Z,35.93
2019-01-23T15:18:57.834Z,36.30
2019-01-23T15:21:27.029Z,36.03
2019-01-23T15:23:56.439Z,34.60
2019-01-23T15:26:25.811Z,36.27
2019-01-23T15:28:55.193Z,37.93
2019-01-23T15:31:24.379Z,39.80
2019-01-23T15:33:53.535Z,37.10
2019-01-23T15:36:23.334Z,38.13
2019-01-23T15:38:52.485Z,38.93
2019-01-23T15:41:22.462Z,39.53
2019-01-23T15:43:52.648Z,39.03
2019-01-23T15:46:22.375Z,37.53
2019-01-23T15:48:51.524Z,38.20
2019-01-23T15:51:22.601Z,37.13
2019-01-23T15:53:51.806Z,37.33
2019-01-23T15:56:24.138Z,38.03
2019-01-23T15:58:55.580Z,38.07
2019-01-23T16:01:24.962Z,38.60
2019-01-23T16:03:55.186Z,39.37
2019-01-23T16:06:31.808Z,38.67
2019-01-23T16:09:01.002Z,40.30
2019-01-23T16:11:30.256Z,39.80
2019-01-23T16:13:59.320Z,40.67
2019-01-23T16:16:28.510Z,39.40
2019-01-23T16:18:57.673Z,37.67
2019-01-23T16:21:27.039Z,33.03
2019-01-23T16:23:56.453Z,36.07
2019-01-23T16:26:26.200Z,27.30
2019-01-23T16:28:55.223Z,32.00
2019-01-23T16:31:25.365Z,29.23
2019-01-23T16:33:54.513Z,26.83
2019-01-23T16:36:23.635Z,36.03
2019-01-23T16:38:52.760Z,35.97
2019-01-23T16:41:21.953Z,40.27
2019-01-23T16:43:51.144Z,38.97
2019-01-23T16:46:20.301Z,38.73
2019-01-23T16:48:49.384Z,39.63
2019-01-23T16:51:18.507Z,43.03
2019-01-23T16:53:47.669Z,39.53
2019-01-23T16:56:17.306Z,38.33
2019-01-23T16:58:51.041Z,40.37
2019-01-23T17:01:22.629Z,35.87
2019-01-23T17:03:51.833Z,37.87
2019-01-23T17:06:21.050Z,42.23
2019-01-23T17:08:50.178Z,41.83
2019-01-23T17:11:21.338Z,41.60
2019-01-23T17:14:01.214Z,42.47
2019-01-23T17:16:30.504Z,44.07
2019-01-23T17:19:02.814Z,39.57
2019-01-23T17:21:33.386Z,41.37
2019-01-23T17:24:02.781Z,43.50
2019-01-23T17:26:31.905Z,36.63
2019-01-23T17:29:01.415Z,26.37
2019-01-23T17:31:30.595Z,34.23
2019-01-23T17:34:00.778Z,36.20
2019-01-23T17:36:29.904Z,36.70
2019-01-23T17:38:59.113Z,36.37
2019-01-23T17:41:28.251Z,39.80
2019-01-23T17:43:57.573Z,39.93
2019-01-23T17:46:28.728Z,38.67
2019-01-23T17:49:00.234Z,39.63
2019-01-23T17:51:29.377Z,37.97
2019-01-23T17:53:58.801Z,37.30
2019-01-23T17:56:34.983Z,39.30
2019-01-23T17:59:05.292Z,36.30
2019-01-23T18:01:34.481Z,34.30
2019-01-23T18:04:03.827Z,35.50
2019-01-23T18:06:34.144Z,34.70
2019-01-23T18:09:04.165Z,32.30
2019-01-23T18:11:33.294Z,32.60
2019-01-23T18:14:02.751Z,32.00
2019-01-23T18:16:32.270Z,31.73
2019-01-23T18:19:01.553Z,30.23
2019-01-23T18:21:30.679Z,29.70
2019-01-23T18:23:59.772Z,28.20
2019-01-23T18:26:28.964Z,27.23
2019-01-23T18:28:58.064Z,25.23
2019-01-23T18:31:50.020Z,21.33
2019-01-23T18:35:14.664Z,29.83
2019-01-23T18:38:22.896Z,28.70
2019-01-23T18:41:42.135Z,27.50
2019-01-23T18:44:32.496Z,25.53
2019-01-23T18:47:17.404Z,27.20
2019-01-23T18:50:05.058Z,24.73
2019-01-23T18:52:34.656Z,25.27
2019-01-23T18:55:06.015Z,26.13
2019-01-23T18:57:35.146Z,22.43
2019-01-23T19:00:06.517Z,23.90
2019-01-23T19:02:37.349Z,24.10
2019-01-23T19:05:08.105Z,25.67
2019-01-23T19:07:37.231Z,25.13
2019-01-23T19:10:09.787Z,27.00
2019-01-23T19:12:38.939Z,25.40
2019-01-23T19:15:10.413Z,26.97
2019-01-23T19:17:39.666Z,25.27
2019-01-23T19:20:12.243Z,27.30
2019-01-23T19:22:41.659Z,28.40
2019-01-23T19:25:13.081Z,27.50
2019-01-23T19:27:42.328Z,27.03
2019-01-23T19:30:13.641Z,26.60
2019-01-23T19:32:43.049Z,24.03
2019-01-23T19:35:12.235Z,26.20
2019-01-23T19:37:41.614Z,26.10
2019-01-23T19:40:11.880Z,23.77
2019-01-23T19:42:41.018Z,21.77
2019-01-23T19:45:14.484Z,23.83
2019-01-23T19:47:43.648Z,23.67
2019-01-23T19:50:14.368Z,23.20
2019-01-23T19:52:45.910Z,23.63
2019-01-23T19:55:17.021Z,24.70
2019-01-23T19:57:46.317Z,26.07
2019-01-23T20:00:20.913Z,25.33
2019-01-23T20:02:50.310Z,23.83
2019-01-23T20:05:27.204Z,26.70
2019-01-23T20:07:57.531Z,25.80
2019-01-23T20:10:29.676Z,24.90
2019-01-23T20:12:58.930Z,25.67
2019-01-23T20:15:28.617Z,26.97
2019-01-23T20:18:04.246Z,26.60
2019-01-23T20:20:33.703Z,28.63
2019-01-23T20:23:04.058Z,29.13
2019-01-23T20:25:33.398Z,27.10
2019-01-23T20:28:03.589Z,25.47
2019-01-23T20:30:35.042Z,25.37
2019-01-23T20:33:04.487Z,24.70
2019-01-23T20:35:33.650Z,19.20
2019-01-23T20:38:02.790Z,9.70
2019-01-23T20:40:32.875Z,21.40
2019-01-23T20:43:02.868Z,25.17
2019-01-23T20:45:32.814Z,23.07
2019-01-23T20:48:03.499Z,20.57
2019-01-23T20:50:32.826Z,21.73
2019-01-23T20:53:02.036Z,19.43
2019-01-23T20:55:31.533Z,20.73
2019-01-23T20:58:01.941Z,24.97
2019-01-23T21:00:32.459Z,25.27
2019-01-23T21:03:01.989Z,25.87
2019-01-23T21:05:31.224Z,25.93
2019-01-23T21:08:00.358Z,28.07
2019-01-23T21:10:29.526Z,28.67
2019-01-23T21:12:58.960Z,25.57
2019-01-23T21:15:30.018Z,26.50
2019-01-23T21:17:59.360Z,26.73
2019-01-23T21:20:30.996Z,26.60
2019-01-23T21:23:00.569Z,26.60
2019-01-23T21:25:29.985Z,25.50
2019-01-23T21:27:59.207Z,24.40
2019-01-23T21:30:30.252Z,26.83
2019-01-23T21:32:59.447Z,23.23
2019-01-23T21:35:29.357Z,24.77
2019-01-23T21:37:58.770Z,24.20
2019-01-23T21:40:34.735Z,26.63
2019-01-23T21:43:04.175Z,25.33
2019-01-23T21:45:35.693Z,28.10
2019-01-23T21:48:05.363Z,25.93
2019-01-23T21:50:34.519Z,24.90
2019-01-23T21:53:05.768Z,24.83
2019-01-23T21:55:34.899Z,27.53
2019-01-23T21:58:05.979Z,27.27
2019-01-23T22:00:37.857Z,27.47
2019-01-23T22:03:08.033Z,27.33
2019-01-23T22:05:37.209Z,25.43
2019-01-23T22:08:06.360Z,28.23
2019-01-23T22:10:35.490Z,24.90
2019-01-23T22:13:14.556Z,30.13
2019-01-23T22:15:43.852Z,28.47
2019-01-23T22:18:12.968Z,26.13
2019-01-23T22:20:42.348Z,25.83
2019-01-23T22:23:11.792Z,27.27
2019-01-23T22:25:41.553Z,26.80
2019-01-23T22:28:13.715Z,24.07
2019-01-23T22:30:42.832Z,22.93
2019-01-23T22:33:13.693Z,22.70
2019-01-23T22:35:44.302Z,21.53
2019-01-23T22:38:14.990Z,20.30
2019-01-23T22:40:44.375Z,9.83
2019-01-23T22:43:15.102Z,15.17
2019-01-23T22:45:45.633Z,24.23
2019-01-23T22:48:14.755Z,24.47
2019-01-23T22:50:43.863Z,24.63
2019-01-23T22:53:13.773Z,25.27
2019-01-23T22:55:43.598Z,21.17
2019-01-23T22:58:13.830Z,22.40
2019-01-23T23:00:55.707Z,21.40
2019-01-23T23:03:27.422Z,22.13
2019-01-23T23:05:56.565Z,22.37
2019-01-23T23:08:26.031Z,22.23
2019-01-23T23:10:55.123Z,20.17
2019-01-23T23:13:24.322Z,22.47
2019-01-23T23:15:53.445Z,22.97
2019-01-23T23:18:24.171Z,23.93
2019-01-23T23:20:55.355Z,25.07
2019-01-23T23:23:25.310Z,25.80
2019-01-23T23:25:54.473Z,24.47
2019-01-23T23:28:26.088Z,25.53
2019-01-23T23:30:54.551Z,23.27
2019-01-23T23:33:26.602Z,23.60
2019-01-23T23:35:56.051Z,24.90
2019-01-23T23:38:27.483Z,25.10
2019-01-23T23:40:58.192Z,25.37
2019-01-23T23:43:30.483Z,24.23
2019-01-23T23:46:01.750Z,26.90
2019-01-23T23:48:31.073Z,25.13
2019-01-23T23:51:00.263Z,25.37
2019-01-23T23:53:29.423Z,23.40
2019-01-23T23:55:58.542Z,23.67
2019-01-23T23:58:27.955Z,23.63
